Time;durP1;ratioP1;P1;durP2;ratioP2;P2;SDS_P1;SDS_P2;PMS_P1;PMS_P2;Temp;Humidity;BMP_temperature;BMP_pressure;BME280_temperature;BME280_humidity;BME280_pressure;Samples;Min_cycle;Max_cycle;Signal;HPM_P1;HPM_P2
2022/12/09 00:00:18;;;;;;;9.60;6.03;;;;;;;;;;6361121;28;20271;-69
2022/12/09 00:03:23;;;;;;;11.27;6.93;;;;;;;;;;6360617;28;20286;-69
2022/12/09 00:06:29;;;;;;;8.57;6.27;;;;;;;;;;6361206;28;20270;-69
2022/12/09 00:09:34;;;;;;;8.83;6.63;;;;;;;;;;6364952;28;20306;-69
2022/12/09 00:12:39;;;;;;;9.03;6.63;;;;;;;;;;6365677;28;20292;-69
2022/12/09 00:15:46;;;;;;;7.07;6.37;;;;;;;;;;6366181;28;20575;-69
2022/12/09 00:18:52;;;;;;;10.20;6.80;;;;;;;;;;6365378;28;20574;-69
2022/12/09 00:21:57;;;;;;;9.27;6.63;;;;;;;;;;6365534;28;20264;-69
2022/12/09 00:25:02;;;;;;;13.43;7.30;;;;;;;;;;6364961;28;20579;-69
2022/12/09 00:28:07;;;;;;;11.27;7.27;;;;;;;;;;6364762;28;20287;-69
2022/12/09 00:31:15;;;;;;;11.03;6.97;;;;;;;;;;6365256;28;20272;-68
2022/12/09 00:34:22;;;;;;;11.90;7.37;;;;;;;;;;6364991;28;20316;-68
2022/12/09 00:37:27;;;;;;;13.00;7.50;;;;;;;;;;6364573;28;20295;-69
2022/12/09 00:40:35;;;;;;;11.67;7.40;;;;;;;;;;6347456;28;20279;-68
2022/12/09 00:43:40;;;;;;;11.23;7.40;;;;;;;;;;6346733;28;20298;-68
2022/12/09 00:46:47;;;;;;;10.50;7.83;;;;;;;;;;6365176;28;20458;-68
2022/12/09 00:49:52;;;;;;;12.17;7.50;;;;;;;;;;6364240;28;20604;-69
2022/12/09 00:52:57;;;;;;;9.50;7.23;;;;;;;;;;6346554;28;20314;-69
2022/12/09 00:56:03;;;;;;;11.17;7.60;;;;;;;;;;6365097;28;20275;-69
2022/12/09 00:59:09;;;;;;;9.60;7.93;;;;;;;;;;6364307;28;20325;-69
2022/12/09 01:02:16;;;;;;;9.03;7.47;;;;;;;;;;6346085;28;20443;-68
2022/12/09 01:05:21;;;;;;;12.97;7.77;;;;;;;;;;6364744;28;20470;-68
2022/12/09 01:08:26;;;;;;;14.33;7.60;;;;;;;;;;6346698;28;20303;-68
2022/12/09 01:11:31;;;;;;;13.77;8.90;;;;;;;;;;6337543;28;20292;-68
2022/12/09 01:14:36;;;;;;;14.60;8.43;;;;;;;;;;6313866;28;20293;-69
2022/12/09 01:17:42;;;;;;;12.77;7.47;;;;;;;;;;6312652;28;20300;-69
2022/12/09 01:20:57;;;;;;;18.50;8.90;;;;;;;;;;6313828;28;20273;-69
2022/12/09 01:24:05;;;;;;;17.47;8.87;;;;;;;;;;6312801;28;20297;-69
2022/12/09 01:27:10;;;;;;;17.67;8.97;;;;;;;;;;6311855;28;20292;-69
2022/12/09 01:30:16;;;;;;;13.67;8.10;;;;;;;;;;6313659;28;20297;-69
2022/12/09 01:33:22;;;;;;;16.23;8.60;;;;;;;;;;6312003;28;20300;-68
2022/12/09 01:36:28;;;;;;;11.00;7.37;;;;;;;;;;6313758;28;20273;-68
2022/12/09 01:39:34;;;;;;;6.90;6.20;;;;;;;;;;6313429;28;20616;-69
2022/12/09 01:42:39;;;;;;;7.17;5.87;;;;;;;;;;6313218;28;20294;-69
2022/12/09 01:45:44;;;;;;;7.13;5.70;;;;;;;;;;6312269;28;20543;-68
2022/12/09 01:48:51;;;;;;;6.10;5.60;;;;;;;;;;6312872;28;20300;-69
2022/12/09 01:52:01;;;;;;;7.57;6.27;;;;;;;;;;6313185;28;20456;-69
2022/12/09 01:55:08;;;;;;;7.93;6.00;;;;;;;;;;6311503;28;20560;-69
2022/12/09 01:58:14;;;;;;;8.13;5.27;;;;;;;;;;6311627;28;20318;-69
2022/12/09 02:01:19;;;;;;;5.80;5.30;;;;;;;;;;6311491;28;20268;-69
2022/12/09 02:04:27;;;;;;;6.80;6.10;;;;;;;;;;6311641;28;20304;-69
2022/12/09 02:07:33;;;;;;;6.40;5.80;;;;;;;;;;6311502;28;20293;-69
2022/12/09 02:10:43;;;;;;;6.00;5.50;;;;;;;;;;6325550;28;20290;-69
2022/12/09 02:13:52;;;;;;;6.53;5.37;;;;;;;;;;6337527;28;20297;-69
2022/12/09 02:17:09;;;;;;;8.53;5.93;;;;;;;;;;6319612;28;20272;-69
2022/12/09 02:20:19;;;;;;;6.27;5.67;;;;;;;;;;6336995;28;20283;-69
2022/12/09 02:23:27;;;;;;;6.63;5.43;;;;;;;;;;6319374;28;20292;-69
2022/12/09 02:26:38;;;;;;;6.47;5.83;;;;;;;;;;6319640;28;20583;-69
2022/12/09 02:29:57;;;;;;;6.73;5.63;;;;;;;;;;6318643;28;20299;-69
2022/12/09 02:33:22;;;;;;;8.37;6.17;;;;;;;;;;6318952;28;20311;-69
2022/12/09 02:36:33;;;;;;;6.20;5.60;;;;;;;;;;6319756;28;20269;-69
2022/12/09 02:39:42;;;;;;;5.67;5.17;;;;;;;;;;6318829;28;20604;-69
2022/12/09 02:42:49;;;;;;;5.37;4.87;;;;;;;;;;6335200;28;20293;-69
2022/12/09 02:45:55;;;;;;;4.87;4.47;;;;;;;;;;6337063;28;20268;-69
2022/12/09 02:49:01;;;;;;;8.60;5.43;;;;;;;;;;6318636;28;20596;-69
2022/12/09 02:52:07;;;;;;;4.70;4.33;;;;;;;;;;6336748;28;20526;-68
2022/12/09 02:55:16;;;;;;;4.53;4.23;;;;;;;;;;6335885;28;20268;-69
2022/12/09 02:58:22;;;;;;;4.10;3.90;;;;;;;;;;6335030;28;20290;-69
2022/12/09 03:01:35;;;;;;;4.63;4.23;;;;;;;;;;6318452;28;20276;-69
2022/12/09 03:04:42;;;;;;;7.90;4.63;;;;;;;;;;6336072;28;20304;-69
2022/12/09 03:07:55;;;;;;;5.37;4.30;;;;;;;;;;6310699;28;20304;-69
2022/12/09 03:11:02;;;;;;;4.13;3.93;;;;;;;;;;6328586;28;20296;-69
2022/12/09 03:14:10;;;;;;;4.60;4.30;;;;;;;;;;6335696;28;20305;-69
2022/12/09 03:17:19;;;;;;;7.90;4.20;;;;;;;;;;6335973;28;20280;-69
2022/12/09 03:20:27;;;;;;;4.90;4.57;;;;;;;;;;6336225;28;20404;-69
2022/12/09 03:23:35;;;;;;;4.80;4.40;;;;;;;;;;6335267;28;20295;-69
2022/12/09 03:26:43;;;;;;;5.00;4.70;;;;;;;;;;6335956;28;20269;-69
2022/12/09 03:29:49;;;;;;;4.33;4.03;;;;;;;;;;6336123;28;20324;-70
2022/12/09 03:32:55;;;;;;;7.33;4.00;;;;;;;;;;6335632;28;20292;-69
2022/12/09 03:36:04;;;;;;;4.30;4.10;;;;;;;;;;6336146;28;20272;-69
2022/12/09 03:39:14;;;;;;;4.10;3.90;;;;;;;;;;6335795;28;20297;-70
2022/12/09 03:42:21;;;;;;;4.10;3.77;;;;;;;;;;6334213;28;20473;-69
2022/12/09 03:45:27;;;;;;;4.00;3.80;;;;;;;;;;6336057;28;20269;-69
2022/12/09 03:48:33;;;;;;;4.33;4.00;;;;;;;;;;6335361;28;20589;-68
2022/12/09 03:51:42;;;;;;;3.30;3.13;;;;;;;;;;6317782;28;20295;-69
2022/12/09 03:54:52;;;;;;;4.57;3.60;;;;;;;;;;6335085;28;20295;-69
2022/12/09 03:57:58;;;;;;;6.57;3.13;;;;;;;;;;6334818;28;20592;-69
2022/12/09 04:01:03;;;;;;;3.30;3.20;;;;;;;;;;6334795;28;20276;-69
2022/12/09 04:04:09;;;;;;;3.70;3.50;;;;;;;;;;6316844;28;20288;-69
2022/12/09 04:07:15;;;;;;;3.43;3.20;;;;;;;;;;6335447;28;20427;-67
2022/12/09 04:10:21;;;;;;;3.87;3.60;;;;;;;;;;6335444;28;20307;-69
2022/12/09 04:13:26;;;;;;;3.53;3.10;;;;;;;;;;6335042;28;20291;-69
2022/12/09 04:16:31;;;;;;;3.23;2.83;;;;;;;;;;6335841;28;20348;-68
2022/12/09 04:19:36;;;;;;;3.60;3.40;;;;;;;;;;6335327;28;20472;-69
2022/12/09 04:22:42;;;;;;;3.27;2.97;;;;;;;;;;6335480;28;20444;-69
2022/12/09 04:25:49;;;;;;;3.87;3.37;;;;;;;;;;6335205;28;20295;-69
2022/12/09 04:28:54;;;;;;;3.57;3.27;;;;;;;;;;6335105;28;20300;-69
2022/12/09 04:32:00;;;;;;;3.80;3.50;;;;;;;;;;6335229;28;20311;-68
2022/12/09 04:35:07;;;;;;;3.30;3.00;;;;;;;;;;6335225;28;20300;-69
2022/12/09 04:38:13;;;;;;;3.37;3.10;;;;;;;;;;6334576;28;20289;-68
2022/12/09 04:41:19;;;;;;;3.20;3.03;;;;;;;;;;6335735;28;20388;-68
2022/12/09 04:44:24;;;;;;;3.10;3.00;;;;;;;;;;6334674;28;20293;-69
2022/12/09 04:47:29;;;;;;;4.20;3.40;;;;;;;;;;6335629;28;20462;-69
2022/12/09 04:50:34;;;;;;;3.00;2.90;;;;;;;;;;6334804;28;20294;-68
2022/12/09 04:53:40;;;;;;;3.47;3.27;;;;;;;;;;6336061;28;20293;-68
2022/12/09 04:56:47;;;;;;;3.70;3.50;;;;;;;;;;6339954;28;20273;-68
2022/12/09 04:59:52;;;;;;;4.40;3.80;;;;;;;;;;6339221;28;20292;-69
2022/12/09 05:02:57;;;;;;;3.30;3.10;;;;;;;;;;6339123;28;20284;-70
2022/12/09 05:06:04;;;;;;;3.27;3.13;;;;;;;;;;6327394;28;20277;-69
2022/12/09 05:09:12;;;;;;;3.43;3.17;;;;;;;;;;6315699;28;20306;-69
2022/12/09 05:12:18;;;;;;;6.23;3.93;;;;;;;;;;6338975;28;20285;-69
2022/12/09 05:15:23;;;;;;;4.33;4.07;;;;;;;;;;6338931;28;20298;-70
2022/12/09 05:18:29;;;;;;;5.37;4.83;;;;;;;;;;6338943;28;20283;-69
2022/12/09 05:21:34;;;;;;;4.90;4.50;;;;;;;;;;6339273;28;20447;-69
2022/12/09 05:24:39;;;;;;;6.03;5.53;;;;;;;;;;6338668;28;20297;-69
2022/12/09 05:27:46;;;;;;;7.70;6.90;;;;;;;;;;6339133;28;20273;-69
2022/12/09 05:30:51;;;;;;;8.20;6.53;;;;;;;;;;6338543;28;20270;-70
2022/12/09 05:33:56;;;;;;;17.77;11.53;;;;;;;;;;6338802;28;20298;-69
2022/12/09 05:37:02;;;;;;;15.80;10.77;;;;;;;;;;6339076;28;20447;-69
2022/12/09 05:40:08;;;;;;;15.30;10.70;;;;;;;;;;6338259;28;20329;-69
2022/12/09 05:43:15;;;;;;;7.07;6.30;;;;;;;;;;6338403;28;20562;-69
2022/12/09 05:46:20;;;;;;;6.30;5.80;;;;;;;;;;6338745;28;20268;-69
2022/12/09 05:49:26;;;;;;;6.07;5.50;;;;;;;;;;6338276;28;20297;-69
2022/12/09 05:52:31;;;;;;;6.60;6.00;;;;;;;;;;6338128;28;20470;-69
2022/12/09 05:55:40;;;;;;;14.07;7.10;;;;;;;;;;6337826;28;20297;-69
2022/12/09 05:58:47;;;;;;;8.23;6.83;;;;;;;;;;6337752;28;20301;-69
2022/12/09 06:01:53;;;;;;;9.00;7.03;;;;;;;;;;6338443;28;20269;-69
2022/12/09 06:04:58;;;;;;;5.77;5.30;;;;;;;;;;6336704;28;20322;-69
2022/12/09 06:08:04;;;;;;;4.87;4.33;;;;;;;;;;6337389;28;20293;-69
2022/12/09 06:11:14;;;;;;;4.00;3.60;;;;;;;;;;6346575;28;20284;-69
2022/12/09 06:14:20;;;;;;;4.30;4.00;;;;;;;;;;6362643;28;20300;-69
2022/12/09 06:17:25;;;;;;;3.70;3.50;;;;;;;;;;6363520;28;20273;-69
2022/12/09 06:20:30;;;;;;;3.37;3.27;;;;;;;;;;6362414;28;20289;-69
2022/12/09 06:23:36;;;;;;;4.40;4.07;;;;;;;;;;6362405;28;20614;-70
2022/12/09 06:26:41;;;;;;;4.00;3.80;;;;;;;;;;6362855;28;20427;-69
2022/12/09 06:29:48;;;;;;;3.77;3.57;;;;;;;;;;6362086;28;20296;-69
2022/12/09 06:32:53;;;;;;;4.47;4.07;;;;;;;;;;6362185;28;20287;-69
2022/12/09 06:36:02;;;;;;;4.50;4.13;;;;;;;;;;6362525;28;20285;-69
2022/12/09 06:39:08;;;;;;;5.27;3.90;;;;;;;;;;6362029;28;20300;-69
2022/12/09 06:42:15;;;;;;;3.40;3.30;;;;;;;;;;6362782;28;20273;-69
2022/12/09 06:45:22;;;;;;;4.63;4.10;;;;;;;;;;6343958;28;20293;-69
2022/12/09 06:48:27;;;;;;;9.40;4.00;;;;;;;;;;6361236;28;20300;-70
2022/12/09 06:51:33;;;;;;;3.67;3.47;;;;;;;;;;6362102;28;20305;-69
2022/12/09 06:54:38;;;;;;;4.50;4.20;;;;;;;;;;6361630;28;20300;-69
2022/12/09 06:57:43;;;;;;;4.10;3.80;;;;;;;;;;6362201;28;20275;-69
2022/12/09 07:00:49;;;;;;;7.23;3.80;;;;;;;;;;6361530;28;20323;-68
2022/12/09 07:03:56;;;;;;;4.63;4.30;;;;;;;;;;6343276;28;20303;-69
2022/12/09 07:07:02;;;;;;;3.97;3.73;;;;;;;;;;6361976;28;20277;-68
2022/12/09 07:10:09;;;;;;;8.67;6.93;;;;;;;;;;6361400;28;20326;-69
2022/12/09 07:13:14;;;;;;;17.73;10.70;;;;;;;;;;6335842;28;20298;-69
2022/12/09 07:16:21;;;;;;;28.70;16.03;;;;;;;;;;6335900;28;20516;-69
2022/12/09 07:19:27;;;;;;;37.03;20.93;;;;;;;;;;6336055;28;20296;-70
2022/12/09 07:22:33;;;;;;;38.63;21.23;;;;;;;;;;6336296;28;20277;-69
2022/12/09 07:25:38;;;;;;;40.70;24.70;;;;;;;;;;6334783;28;20301;-69
2022/12/09 07:28:45;;;;;;;45.17;25.07;;;;;;;;;;6335388;28;20298;-69
2022/12/09 07:31:52;;;;;;;33.63;21.50;;;;;;;;;;6336260;28;20269;-69
2022/12/09 07:34:58;;;;;;;40.37;22.13;;;;;;;;;;6335668;28;20309;-70
2022/12/09 07:38:03;;;;;;;39.57;21.80;;;;;;;;;;6317332;28;20269;-70
2022/12/09 07:41:16;;;;;;;30.40;18.57;;;;;;;;;;6335670;28;20266;-69
2022/12/09 07:44:22;;;;;;;21.73;14.33;;;;;;;;;;6335185;28;20305;-69
2022/12/09 07:47:28;;;;;;;23.00;12.87;;;;;;;;;;6335656;28;20269;-69
2022/12/09 07:50:34;;;;;;;23.50;12.73;;;;;;;;;;6335598;28;20290;-69
2022/12/09 07:53:40;;;;;;;18.83;12.30;;;;;;;;;;6335250;28;20602;-69
2022/12/09 07:56:45;;;;;;;20.93;12.33;;;;;;;;;;6335973;28;20269;-69
2022/12/09 07:59:52;;;;;;;19.40;12.90;;;;;;;;;;6335366;28;20305;-69
2022/12/09 08:02:58;;;;;;;14.00;10.07;;;;;;;;;;6335022;28;20275;-69
2022/12/09 08:06:04;;;;;;;17.17;10.53;;;;;;;;;;6335682;28;20275;-69
2022/12/09 08:09:13;;;;;;;19.27;12.07;;;;;;;;;;6334406;28;20301;-69
2022/12/09 08:12:18;;;;;;;17.13;11.10;;;;;;;;;;6326393;28;20262;-69
2022/12/09 08:15:23;;;;;;;25.40;13.60;;;;;;;;;;6335183;28;20301;-69
2022/12/09 08:18:30;;;;;;;26.73;15.87;;;;;;;;;;6334979;28;20304;-69
2022/12/09 08:21:35;;;;;;;33.83;16.73;;;;;;;;;;6335342;28;20279;-70
2022/12/09 08:24:40;;;;;;;27.97;15.27;;;;;;;;;;6335032;28;20297;-69
2022/12/09 08:27:46;;;;;;;18.43;11.63;;;;;;;;;;6335621;28;20269;-69
2022/12/09 08:30:51;;;;;;;14.30;10.47;;;;;;;;;;6339463;28;20273;-70
2022/12/09 08:33:58;;;;;;;14.50;9.30;;;;;;;;;;6339875;28;20298;-70
2022/12/09 08:37:03;;;;;;;8.93;7.23;;;;;;;;;;6340061;28;20290;-69
2022/12/09 08:40:09;;;;;;;5.97;5.40;;;;;;;;;;6339969;28;20310;-70
2022/12/09 08:43:15;;;;;;;7.53;4.30;;;;;;;;;;6339466;28;20290;-69
2022/12/09 08:46:20;;;;;;;3.90;3.70;;;;;;;;;;6339799;28;20267;-70
2022/12/09 08:49:28;;;;;;;3.80;3.60;;;;;;;;;;6339729;28;20293;-70
2022/12/09 08:52:33;;;;;;;3.90;3.70;;;;;;;;;;6340086;28;20289;-69
2022/12/09 08:55:44;;;;;;;4.37;3.30;;;;;;;;;;6339455;28;20479;-70
2022/12/09 08:58:49;;;;;;;24.50;13.27;;;;;;;;;;6339117;28;20297;-69
2022/12/09 09:01:54;;;;;;;4.77;4.40;;;;;;;;;;6339999;28;20271;-70
2022/12/09 09:05:02;;;;;;;3.60;3.40;;;;;;;;;;6339078;28;20302;-70
2022/12/09 09:08:08;;;;;;;3.50;3.33;;;;;;;;;;6338921;28;20274;-69
2022/12/09 09:11:15;;;;;;;3.40;3.30;;;;;;;;;;6347373;28;20287;-70
2022/12/09 09:14:20;;;;;;;3.60;3.40;;;;;;;;;;6363878;28;20301;-70
2022/12/09 09:17:25;;;;;;;4.63;4.17;;;;;;;;;;6364323;28;20274;-69
2022/12/09 09:20:32;;;;;;;5.30;3.93;;;;;;;;;;6364092;28;20294;-69
2022/12/09 09:23:38;;;;;;;3.50;3.30;;;;;;;;;;6363706;28;20290;-69
2022/12/09 09:26:45;;;;;;;2.90;2.70;;;;;;;;;;6364579;28;20548;-69
2022/12/09 09:29:50;;;;;;;3.20;2.80;;;;;;;;;;6363603;28;20297;-69
2022/12/09 09:32:56;;;;;;;3.57;3.37;;;;;;;;;;6363246;28;20269;-70
2022/12/09 09:36:04;;;;;;;3.90;3.70;;;;;;;;;;6363862;28;20286;-69
2022/12/09 09:39:14;;;;;;;3.90;3.60;;;;;;;;;;6363172;28;20287;-69
2022/12/09 09:42:24;;;;;;;3.53;3.37;;;;;;;;;;6364107;28;20265;-69
2022/12/09 09:45:29;;;;;;;3.60;3.40;;;;;;;;;;6363063;28;20310;-69
2022/12/09 09:48:36;;;;;;;3.70;3.40;;;;;;;;;;6363437;28;20294;-69
2022/12/09 09:51:43;;;;;;;3.87;3.57;;;;;;;;;;6345919;28;20286;-69
2022/12/09 09:54:48;;;;;;;6.30;3.57;;;;;;;;;;6363155;28;20606;-69
2022/12/09 09:57:58;;;;;;;3.80;3.60;;;;;;;;;;6363309;28;20267;-69
2022/12/09 10:01:06;;;;;;;3.43;3.33;;;;;;;;;;6345882;28;20263;-69
2022/12/09 10:04:18;;;;;;;3.60;3.10;;;;;;;;;;6362851;28;20289;-69
2022/12/09 10:07:33;;;;;;;3.70;3.50;;;;;;;;;;6363569;28;20270;-69
2022/12/09 10:10:44;;;;;;;4.13;3.63;;;;;;;;;;6363015;28;20294;-69
2022/12/09 10:13:54;;;;;;;4.07;3.87;;;;;;;;;;6362810;28;20294;-69
2022/12/09 10:17:06;;;;;;;4.43;3.90;;;;;;;;;;6363278;28;20278;-69
2022/12/09 10:20:15;;;;;;;3.67;3.30;;;;;;;;;;6362608;28;20294;-69
2022/12/09 10:23:24;;;;;;;3.80;3.50;;;;;;;;;;6362506;28;20290;-69
2022/12/09 10:26:31;;;;;;;4.40;3.33;;;;;;;;;;6362479;28;20275;-69
2022/12/09 10:29:54;;;;;;;3.00;2.90;;;;;;;;;;6361251;28;20296;-69
2022/12/09 10:32:59;;;;;;;3.47;3.17;;;;;;;;;;6362450;28;20268;-69
2022/12/09 10:36:06;;;;;;;3.70;3.50;;;;;;;;;;6362372;28;20495;-69
2022/12/09 10:39:15;;;;;;;3.93;3.73;;;;;;;;;;6362224;28;20299;-69
2022/12/09 10:45:46;;;;;;;4.37;4.00;;;;;;;;;;6361757;28;20293;-68
2022/12/09 10:49:18;;;;;;;3.87;3.67;;;;;;;;;;6362074;28;20290;-69
2022/12/09 10:52:24;;;;;;;3.33;3.13;;;;;;;;;;6361952;28;20449;-69
2022/12/09 10:55:33;;;;;;;3.37;3.00;;;;;;;;;;6361813;28;20299;-69
2022/12/09 10:58:39;;;;;;;5.50;3.83;;;;;;;;;;6361577;28;20290;-70
2022/12/09 11:01:51;;;;;;;4.00;3.70;;;;;;;;;;6362125;28;20271;-69
2022/12/09 11:05:05;;;;;;;3.73;3.63;;;;;;;;;;6361678;28;20294;-70
2022/12/09 11:08:22;;;;;;;3.90;3.70;;;;;;;;;;6361631;28;20286;-69
2022/12/09 11:11:43;;;;;;;3.83;3.53;;;;;;;;;;6361935;28;20292;-70
2022/12/09 11:14:52;;;;;;;3.40;3.30;;;;;;;;;;6343336;28;20300;-69
2022/12/09 11:17:59;;;;;;;4.33;4.03;;;;;;;;;;6360654;28;20271;-70
2022/12/09 11:21:08;;;;;;;3.93;3.83;;;;;;;;;;6361281;28;20283;-69
2022/12/09 11:24:25;;;;;;;5.43;4.93;;;;;;;;;;6361121;28;20291;-69
2022/12/09 11:27:34;;;;;;;4.67;4.47;;;;;;;;;;6361776;28;20267;-69
2022/12/09 11:30:47;;;;;;;5.90;5.40;;;;;;;;;;6361150;28;20290;-69
2022/12/09 11:34:18;;;;;;;4.60;4.33;;;;;;;;;;6342690;28;20483;-69
2022/12/09 11:37:23;;;;;;;5.10;4.70;;;;;;;;;;6361031;28;20287;-69
2022/12/09 11:40:30;;;;;;;4.43;4.13;;;;;;;;;;6360756;28;20291;-69
2022/12/09 11:43:40;;;;;;;4.70;4.30;;;;;;;;;;6360637;28;20299;-68
2022/12/09 11:46:45;;;;;;;4.50;4.20;;;;;;;;;;6360987;28;20414;-69
2022/12/09 11:49:52;;;;;;;5.13;4.13;;;;;;;;;;6360218;28;20310;-69
2022/12/09 11:53:07;;;;;;;4.60;4.20;;;;;;;;;;6360804;28;20559;-70
2022/12/09 11:56:17;;;;;;;4.20;3.90;;;;;;;;;;6343656;28;20291;-70
2022/12/09 11:59:26;;;;;;;5.23;4.77;;;;;;;;;;6360467;28;20306;-70
2022/12/09 12:02:36;;;;;;;5.87;3.73;;;;;;;;;;6361002;28;20291;-68
2022/12/09 12:05:43;;;;;;;4.27;4.00;;;;;;;;;;6365346;28;20295;-69
2022/12/09 12:08:51;;;;;;;3.87;3.53;;;;;;;;;;6365361;28;20298;-70
2022/12/09 12:12:02;;;;;;;4.57;4.07;;;;;;;;;;6366356;28;20464;-70
2022/12/09 12:15:16;;;;;;;4.27;3.90;;;;;;;;;;6365558;28;20294;-69
2022/12/09 12:18:22;;;;;;;6.50;4.07;;;;;;;;;;6365557;28;20304;-69
2022/12/09 12:21:41;;;;;;;4.83;4.43;;;;;;;;;;6348002;28;20271;-70
2022/12/09 12:25:06;;;;;;;4.37;3.97;;;;;;;;;;6365808;28;20303;-69
2022/12/09 12:28:30;;;;;;;4.37;4.13;;;;;;;;;;6365182;28;20477;-70
2022/12/09 12:32:14;;;;;;;4.37;4.10;;;;;;;;;;6365449;28;20267;-71
2022/12/09 12:35:46;;;;;;;5.13;3.70;;;;;;;;;;6365278;28;20295;-69
2022/12/09 12:39:05;;;;;;;3.90;3.60;;;;;;;;;;6365179;28;20557;-69
2022/12/09 12:42:25;;;;;;;4.23;4.03;;;;;;;;;;6347514;28;20291;-69
2022/12/09 12:49:12;;;;;;;4.00;3.60;;;;;;;;;;6364491;28;20295;-69
2022/12/09 12:52:27;;;;;;;4.70;4.40;;;;;;;;;;6365447;28;20263;-69
2022/12/09 12:55:59;;;;;;;4.47;4.20;;;;;;;;;;6364411;28;20584;-69
2022/12/09 12:59:12;;;;;;;4.20;4.00;;;;;;;;;;6364981;28;20291;-69
2022/12/09 13:02:28;;;;;;;5.80;4.63;;;;;;;;;;6364829;28;20263;-69
2022/12/09 13:05:37;;;;;;;5.50;4.97;;;;;;;;;;6364728;28;20315;-69
2022/12/09 13:08:46;;;;;;;5.90;5.40;;;;;;;;;;6364070;28;20294;-69
2022/12/09 13:12:02;;;;;;;5.77;5.27;;;;;;;;;;6364326;28;20299;-69
2022/12/09 13:15:11;;;;;;;5.50;5.10;;;;;;;;;;6363789;28;20305;-69
2022/12/09 13:18:20;;;;;;;5.73;5.00;;;;;;;;;;6363978;28;20304;-69
2022/12/09 13:21:27;;;;;;;5.87;5.47;;;;;;;;;;6364692;28;20272;-70
2022/12/09 13:24:36;;;;;;;5.17;4.80;;;;;;;;;;6364052;28;20630;-70
2022/12/09 13:27:45;;;;;;;4.30;4.20;;;;;;;;;;6364432;28;20271;-70
2022/12/09 13:30:54;;;;;;;4.37;3.90;;;;;;;;;;6363655;28;20291;-68
2022/12/09 13:34:09;;;;;;;4.90;4.50;;;;;;;;;;6364037;28;20290;-71
2022/12/09 13:37:54;;;;;;;4.90;4.60;;;;;;;;;;6364199;28;20287;-71
2022/12/09 13:40:59;;;;;;;4.10;3.90;;;;;;;;;;6363148;28;20445;-70
2022/12/09 13:44:07;;;;;;;4.83;4.53;;;;;;;;;;6363758;28;20296;-69
2022/12/09 13:47:33;;;;;;;4.87;4.37;;;;;;;;;;6364183;28;20272;-69
2022/12/09 13:50:41;;;;;;;5.57;5.13;;;;;;;;;;6362808;28;20296;-69
2022/12/09 13:54:01;;;;;;;6.50;5.40;;;;;;;;;;6362939;28;20312;-69
2022/12/09 13:57:13;;;;;;;6.70;6.07;;;;;;;;;;6363454;28;20290;-69
2022/12/09 14:00:19;;;;;;;7.43;6.00;;;;;;;;;;6363023;28;20290;-69
2022/12/09 14:03:29;;;;;;;6.47;5.70;;;;;;;;;;6363079;28;20676;-69
2022/12/09 14:06:39;;;;;;;6.80;6.00;;;;;;;;;;6363226;28;20276;-69
2022/12/09 14:09:49;;;;;;;7.83;6.03;;;;;;;;;;6362303;28;20310;-69
2022/12/09 14:13:22;;;;;;;6.17;5.57;;;;;;;;;;6362647;28;20280;-69
2022/12/09 14:16:34;;;;;;;6.20;5.47;;;;;;;;;;6363125;28;20282;-69
2022/12/09 14:19:53;;;;;;;5.63;5.10;;;;;;;;;;6363052;28;20293;-69
2022/12/09 14:23:25;;;;;;;5.57;5.17;;;;;;;;;;6362177;28;20267;-69
2022/12/09 14:26:39;;;;;;;4.43;4.03;;;;;;;;;;6362416;28;20279;-69
2022/12/09 14:29:53;;;;;;;6.53;5.23;;;;;;;;;;6361999;28;20290;-69
2022/12/09 14:32:58;;;;;;;5.00;4.50;;;;;;;;;;6362762;28;20268;-70
2022/12/09 14:36:05;;;;;;;4.73;4.33;;;;;;;;;;6363046;28;20271;-70
2022/12/09 14:39:17;;;;;;;4.67;4.27;;;;;;;;;;6362415;28;20510;-70
2022/12/09 14:42:42;;;;;;;4.20;3.90;;;;;;;;;;6362700;28;20461;-70
2022/12/09 14:45:50;;;;;;;3.33;3.10;;;;;;;;;;6362044;28;20610;-69
2022/12/09 14:48:57;;;;;;;3.73;3.53;;;;;;;;;;6361747;28;20589;-70
2022/12/09 14:52:09;;;;;;;4.37;3.97;;;;;;;;;;6362455;28;20266;-69
2022/12/09 14:55:16;;;;;;;3.23;3.00;;;;;;;;;;6361766;28;20483;-69
2022/12/09 14:58:23;;;;;;;3.33;3.23;;;;;;;;;;6361815;28;20308;-69
2022/12/09 15:01:28;;;;;;;3.30;3.10;;;;;;;;;;6362180;28;20262;-69
2022/12/09 15:04:35;;;;;;;2.77;2.60;;;;;;;;;;6361290;28;20297;-69
2022/12/09 15:07:44;;;;;;;3.57;2.57;;;;;;;;;;6362049;28;20269;-68
2022/12/09 15:10:49;;;;;;;2.73;2.63;;;;;;;;;;6361091;28;20640;-68
2022/12/09 15:14:25;;;;;;;3.10;3.00;;;;;;;;;;6361249;28;20290;-68
2022/12/09 15:17:26;;;;;;;3.03;2.90;;;;;;;;;;6361384;28;20589;-69
2022/12/09 15:20:34;;;;;;;2.97;2.50;;;;;;;;;;6361026;28;20262;-70
2022/12/09 15:23:41;;;;;;;2.80;2.70;;;;;;;;;;6360517;28;20285;-71
2022/12/09 15:26:58;;;;;;;3.97;3.00;;;;;;;;;;6361518;28;20271;-70
2022/12/09 15:30:21;;;;;;;3.03;2.83;;;;;;;;;;6360754;28;20300;-70
2022/12/09 15:33:26;;;;;;;3.00;2.80;;;;;;;;;;6361177;28;20298;-69
2022/12/09 15:36:34;;;;;;;2.87;2.77;;;;;;;;;;6360923;28;20270;-69
2022/12/09 15:39:42;;;;;;;2.77;2.67;;;;;;;;;;6360359;28;20296;-70
2022/12/09 15:42:51;;;;;;;4.37;3.00;;;;;;;;;;6361363;28;20345;-70
2022/12/09 15:45:57;;;;;;;2.90;2.77;;;;;;;;;;6359829;28;20551;-70
2022/12/09 15:49:03;;;;;;;3.00;2.80;;;;;;;;;;6360188;28;20493;-70
2022/12/09 15:52:08;;;;;;;3.80;3.23;;;;;;;;;;6360953;28;20267;-70
2022/12/09 15:55:16;;;;;;;3.67;3.37;;;;;;;;;;6360699;28;20303;-70
2022/12/09 15:58:23;;;;;;;4.50;4.20;;;;;;;;;;6360363;28;20306;-70
2022/12/09 16:01:31;;;;;;;6.47;4.20;;;;;;;;;;6361202;28;20426;-69
2022/12/09 16:04:42;;;;;;;4.37;3.73;;;;;;;;;;6360659;28;20291;-69
2022/12/09 16:07:53;;;;;;;4.10;3.80;;;;;;;;;;6360658;28;20271;-70
2022/12/09 16:10:58;;;;;;;4.00;3.70;;;;;;;;;;6359969;28;20286;-70
2022/12/09 16:14:04;;;;;;;4.70;3.80;;;;;;;;;;6360074;28;20295;-69
2022/12/09 16:17:20;;;;;;;4.10;3.80;;;;;;;;;;6361052;28;20283;-70
2022/12/09 16:20:33;;;;;;;3.73;3.53;;;;;;;;;;6360169;28;20299;-69
2022/12/09 16:23:38;;;;;;;4.23;3.90;;;;;;;;;;6360184;28;20294;-69
2022/12/09 16:26:46;;;;;;;3.80;3.50;;;;;;;;;;6360251;28;20560;-69
2022/12/09 16:29:53;;;;;;;3.90;3.70;;;;;;;;;;6360330;28;20298;-69
2022/12/09 16:33:00;;;;;;;4.03;3.53;;;;;;;;;;6360028;28;20259;-69
2022/12/09 16:36:08;;;;;;;4.10;3.80;;;;;;;;;;6360939;28;20266;-69
2022/12/09 16:39:32;;;;;;;4.17;3.87;;;;;;;;;;6360298;28;20293;-68
2022/12/09 16:42:37;;;;;;;4.17;3.87;;;;;;;;;;6360875;28;20270;-70
2022/12/09 16:45:45;;;;;;;3.97;3.77;;;;;;;;;;6360070;28;20614;-70
2022/12/09 16:48:52;;;;;;;5.10;4.53;;;;;;;;;;6359820;28;20298;-70
2022/12/09 16:51:57;;;;;;;3.83;3.63;;;;;;;;;;6365529;28;20274;-70
2022/12/09 16:55:05;;;;;;;4.43;4.13;;;;;;;;;;6364669;28;20462;-70
2022/12/09 16:58:12;;;;;;;4.13;3.93;;;;;;;;;;6364685;28;20634;-68
2022/12/09 17:01:19;;;;;;;4.60;4.20;;;;;;;;;;6365195;28;20269;-68
2022/12/09 17:04:28;;;;;;;4.63;4.33;;;;;;;;;;6363842;28;20593;-69
2022/12/09 17:07:33;;;;;;;4.70;4.40;;;;;;;;;;6364586;28;20270;-69
2022/12/09 17:10:39;;;;;;;4.83;4.43;;;;;;;;;;6360729;28;20474;-69
2022/12/09 17:13:44;;;;;;;4.23;3.97;;;;;;;;;;6338708;28;20294;-69
2022/12/09 17:16:48;;;;;;;7.23;4.97;;;;;;;;;;6339150;28;20538;-69
2022/12/09 17:19:59;;;;;;;5.23;4.90;;;;;;;;;;6337208;28;20293;-70
2022/12/09 17:23:05;;;;;;;5.87;5.00;;;;;;;;;;6338276;28;20268;-71
2022/12/09 17:26:12;;;;;;;5.80;5.10;;;;;;;;;;6339202;28;20269;-70
2022/12/09 17:29:17;;;;;;;6.87;6.17;;;;;;;;;;6336991;28;20300;-71
2022/12/09 17:32:23;;;;;;;7.30;5.10;;;;;;;;;;6338396;28;20274;-70
2022/12/09 17:35:32;;;;;;;5.23;4.83;;;;;;;;;;6338209;28;20289;-70
2022/12/09 17:38:37;;;;;;;8.53;6.27;;;;;;;;;;6337838;28;20293;-69
2022/12/09 17:41:42;;;;;;;6.13;5.57;;;;;;;;;;6338559;28;20502;-69
2022/12/09 17:44:47;;;;;;;6.77;5.63;;;;;;;;;;6338178;28;20298;-70
2022/12/09 17:47:52;;;;;;;6.47;5.87;;;;;;;;;;6337939;28;20270;-70
2022/12/09 17:50:59;;;;;;;6.67;5.97;;;;;;;;;;6338299;28;20269;-70
2022/12/09 17:54:04;;;;;;;6.57;5.43;;;;;;;;;;6337652;28;20301;-70
2022/12/09 17:57:09;;;;;;;6.07;5.53;;;;;;;;;;6338551;28;20262;-68
2022/12/09 18:00:15;;;;;;;9.57;6.47;;;;;;;;;;6337362;28;20299;-69
2022/12/09 18:03:20;;;;;;;6.97;5.63;;;;;;;;;;6337172;28;20419;-69
2022/12/09 18:06:47;;;;;;;7.13;5.40;;;;;;;;;;6337801;28;20270;-68
2022/12/09 18:09:52;;;;;;;7.13;6.43;;;;;;;;;;6336971;28;20302;-69
2022/12/09 18:12:58;;;;;;;6.93;6.03;;;;;;;;;;6360129;28;20259;-69
2022/12/09 18:16:08;;;;;;;12.77;7.73;;;;;;;;;;6362798;28;20271;-68
2022/12/09 18:19:15;;;;;;;7.00;6.23;;;;;;;;;;6362414;28;20298;-69
2022/12/09 18:22:22;;;;;;;8.43;6.40;;;;;;;;;;6363022;28;20271;-69
2022/12/09 18:25:27;;;;;;;7.63;5.80;;;;;;;;;;6362523;28;20301;-70
2022/12/09 18:28:31;;;;;;;6.20;5.70;;;;;;;;;;6362250;28;20613;-69
2022/12/09 18:31:37;;;;;;;6.77;6.03;;;;;;;;;;6362322;28;20457;-70
2022/12/09 18:34:42;;;;;;;8.43;6.20;;;;;;;;;;6361715;28;20300;-70
2022/12/09 18:37:48;;;;;;;9.13;6.37;;;;;;;;;;6362347;28;20277;-69
2022/12/09 18:41:02;;;;;;;7.77;7.00;;;;;;;;;;6361545;28;20286;-69
2022/12/09 18:44:07;;;;;;;8.80;6.80;;;;;;;;;;6361566;28;20291;-69
2022/12/09 18:47:12;;;;;;;7.93;6.67;;;;;;;;;;6362601;28;20265;-70
2022/12/09 18:50:17;;;;;;;7.73;7.00;;;;;;;;;;6361199;28;20335;-70
2022/12/09 18:53:24;;;;;;;7.97;6.23;;;;;;;;;;6361869;28;20433;-70